createdAt,value
2024-05-09T00:00:40.432Z,0.00
2024-05-09T00:02:41.831Z,0.00
2024-05-09T00:03:43.350Z,0.00
2024-05-09T00:12:55.945Z,0.00
2024-05-09T00:13:57.406Z,0.00
2024-05-09T00:23:12.413Z,0.00
2024-05-09T00:28:17.788Z,0.00
2024-05-09T00:29:19.175Z,0.00
2024-05-09T00:30:27.995Z,0.00
2024-05-09T00:39:34.174Z,0.00
2024-05-09T00:40:39.694Z,0.00
2024-05-09T00:41:37.473Z,0.00
2024-05-09T00:42:38.911Z,0.00
2024-05-09T00:43:40.255Z,0.00
2024-05-09T00:44:41.643Z,0.00
2024-05-09T00:45:43.400Z,0.00
2024-05-09T00:46:45.035Z,0.00
2024-05-09T00:47:47.029Z,0.00
2024-05-09T00:48:48.505Z,0.00
2024-05-09T00:49:49.930Z,0.00
2024-05-09T00:50:51.398Z,0.00
2024-05-09T00:54:56.858Z,0.00
2024-05-09T00:55:58.245Z,0.00
2024-05-09T00:56:59.609Z,0.00
2024-05-09T03:27:48.380Z,120.00
2024-05-09T03:28:49.788Z,136.00
2024-05-09T03:29:51.106Z,148.00
2024-05-09T03:30:52.486Z,164.00
2024-05-09T03:31:53.976Z,176.00
2024-05-09T03:32:55.411Z,196.00
2024-05-09T03:33:56.858Z,216.00
2024-05-09T03:34:58.301Z,228.00
2024-05-09T03:35:59.681Z,248.00
2024-05-09T03:37:01.082Z,264.00
2024-05-09T03:38:02.489Z,280.00
2024-05-09T03:39:03.825Z,296.00
2024-05-09T03:40:09.268Z,312.00
2024-05-09T03:41:07.051Z,336.00
2024-05-09T03:42:08.492Z,360.00
2024-05-09T03:43:09.815Z,384.00
2024-05-09T03:44:11.239Z,412.00
2024-05-09T03:45:12.577Z,444.00
2024-05-09T03:46:13.934Z,468.00
2024-05-09T03:47:15.371Z,500.00
2024-05-09T03:48:17.213Z,528.00
2024-05-09T03:49:18.810Z,560.00
2024-05-09T03:50:26.343Z,592.00
2024-05-09T03:51:22.078Z,624.00
2024-05-09T03:52:23.484Z,656.00
2024-05-09T03:53:24.881Z,680.00
2024-05-09T03:54:26.244Z,708.00
2024-05-09T03:55:27.599Z,736.00
2024-05-09T03:56:29.010Z,756.00
2024-05-09T03:57:30.389Z,784.00
2024-05-09T03:58:31.733Z,816.00
2024-05-09T03:59:33.151Z,852.00
2024-05-09T04:00:38.400Z,892.00
2024-05-09T04:01:36.453Z,936.00
2024-05-09T04:02:37.865Z,972.00
2024-05-09T04:03:39.343Z,1000.00
2024-05-09T04:04:40.778Z,1036.00
2024-05-09T04:05:43.220Z,1084.00
2024-05-09T04:06:44.050Z,1168.00
2024-05-09T04:07:45.497Z,1284.00
2024-05-09T04:08:46.889Z,1320.00
2024-05-09T04:09:48.235Z,1324.00
2024-05-09T04:10:49.610Z,1348.00
2024-05-09T04:11:51.084Z,1384.00
2024-05-09T04:12:52.481Z,1408.00
2024-05-09T04:13:53.875Z,1416.00
2024-05-09T04:14:55.221Z,1488.00
2024-05-09T04:15:56.575Z,1500.00
2024-05-09T04:16:57.948Z,1500.00
2024-05-09T04:17:59.818Z,1532.00
2024-05-09T04:19:01.520Z,1568.00
2024-05-09T04:20:03.230Z,1584.00
2024-05-09T04:21:04.760Z,1628.00
2024-05-09T04:22:06.215Z,1768.00
2024-05-09T04:23:08.671Z,1944.00
2024-05-09T04:24:09.568Z,2112.00
2024-05-09T04:25:10.939Z,2304.00
2024-05-09T04:26:12.358Z,2304.00
2024-05-09T04:27:13.699Z,2508.00
2024-05-09T04:28:15.068Z,2584.00
2024-05-09T04:29:16.502Z,2328.00
2024-05-09T04:30:25.779Z,2696.00
2024-05-09T04:31:19.695Z,3268.00
2024-05-09T04:32:21.254Z,3652.00
2024-05-09T04:33:23.036Z,3720.00
2024-05-09T04:34:24.461Z,3872.00
2024-05-09T04:35:25.943Z,4012.00
2024-05-09T04:36:27.254Z,4060.00
2024-05-09T04:37:28.619Z,3836.00
2024-05-09T04:38:30.068Z,3580.00
2024-05-09T04:39:31.453Z,3856.00
2024-05-09T04:40:35.762Z,3752.00
2024-05-09T04:41:34.060Z,3348.00
2024-05-09T04:42:35.409Z,3464.00
2024-05-09T04:43:36.791Z,3636.00
2024-05-09T04:44:38.207Z,3704.00
2024-05-09T04:45:39.563Z,3668.00
2024-05-09T04:46:40.927Z,3840.00
2024-05-09T04:47:42.434Z,4048.00
2024-05-09T04:48:43.944Z,4232.00
2024-05-09T04:49:45.351Z,4452.00
2024-05-09T04:50:46.755Z,4440.00
2024-05-09T04:51:48.090Z,4132.00
2024-05-09T04:52:49.502Z,3972.00
2024-05-09T04:53:50.885Z,4012.00
2024-05-09T04:54:54.093Z,4048.00
2024-05-09T04:55:53.883Z,4088.00
2024-05-09T04:56:55.243Z,4260.00
2024-05-09T04:57:56.628Z,4400.00
2024-05-09T04:58:58.061Z,5012.00
2024-05-09T04:59:59.386Z,5896.00
2024-05-09T05:01:00.763Z,6552.00
2024-05-09T05:02:02.282Z,7292.00
2024-05-09T05:03:03.771Z,7400.00
2024-05-09T05:04:05.288Z,7592.00
2024-05-09T05:05:06.799Z,7812.00
2024-05-09T05:06:08.293Z,7924.00
2024-05-09T05:07:09.646Z,8048.00
2024-05-09T05:08:11.106Z,8064.00
2024-05-09T05:09:12.439Z,8088.00
2024-05-09T05:10:21.085Z,8252.00
2024-05-09T05:11:15.774Z,8812.00
2024-05-09T05:12:17.202Z,8712.00
2024-05-09T05:13:19.437Z,8728.00
2024-05-09T05:14:20.737Z,8828.00
2024-05-09T05:15:22.075Z,8864.00
2024-05-09T05:16:23.468Z,9288.00
2024-05-09T05:17:24.936Z,8920.00
2024-05-09T05:18:26.885Z,9612.00
2024-05-09T05:19:27.798Z,9952.00
2024-05-09T05:20:33.566Z,9152.00
2024-05-09T05:21:31.267Z,9240.00
2024-05-09T05:22:32.649Z,8856.00
2024-05-09T05:23:34.211Z,8844.00
2024-05-09T05:24:35.558Z,10076.00
2024-05-09T05:25:36.925Z,9592.00
2024-05-09T05:26:38.347Z,11220.00
2024-05-09T05:27:39.714Z,9828.00
2024-05-09T05:28:41.082Z,7272.00
2024-05-09T05:29:42.494Z,4788.00
2024-05-09T05:30:43.846Z,4668.00
2024-05-09T05:31:45.329Z,4368.00
2024-05-09T05:32:46.822Z,4500.00
2024-05-09T05:33:48.439Z,7472.00
2024-05-09T05:34:49.893Z,10576.00
2024-05-09T05:35:51.334Z,12924.00
2024-05-09T05:36:52.689Z,12972.00
2024-05-09T05:37:54.062Z,10440.00
2024-05-09T05:38:55.494Z,12448.00
2024-05-09T05:39:56.853Z,12056.00
2024-05-09T05:40:58.270Z,11740.00
2024-05-09T05:41:59.606Z,13036.00
2024-05-09T05:43:00.953Z,14976.00
2024-05-09T05:44:02.406Z,6516.00
2024-05-09T05:45:06.097Z,10108.00
2024-05-09T05:46:05.538Z,13984.00
2024-05-09T05:47:06.955Z,14688.00
2024-05-09T05:48:08.492Z,11616.00
2024-05-09T05:49:10.208Z,8776.00
2024-05-09T05:50:21.002Z,6080.00
2024-05-09T05:51:13.862Z,6092.00
2024-05-09T05:52:15.263Z,5956.00
2024-05-09T05:53:16.714Z,5892.00
2024-05-09T05:54:18.078Z,6092.00
2024-05-09T05:55:19.446Z,6644.00
2024-05-09T05:56:20.840Z,8276.00
2024-05-09T05:57:22.195Z,6592.00
2024-05-09T05:58:23.554Z,6424.00
2024-05-09T05:59:24.988Z,6456.00
2024-05-09T06:00:34.340Z,6516.00
2024-05-09T06:01:28.264Z,6880.00
2024-05-09T06:02:29.666Z,7672.00
2024-05-09T06:03:31.121Z,8188.00
2024-05-09T06:04:32.582Z,8744.00
2024-05-09T06:05:34.034Z,12064.00
2024-05-09T06:06:35.372Z,9544.00
2024-05-09T06:07:36.734Z,9480.00
2024-05-09T06:08:38.110Z,12252.00
2024-05-09T06:09:39.478Z,16160.00
2024-05-09T06:10:41.760Z,23616.00
2024-05-09T06:11:42.516Z,24288.00
2024-05-09T06:12:43.893Z,27104.00
2024-05-09T06:13:45.311Z,25088.00
2024-05-09T06:14:46.666Z,25920.00
2024-05-09T06:15:48.036Z,26976.00
2024-05-09T06:16:49.417Z,27424.00
2024-05-09T06:17:50.938Z,13856.00
2024-05-09T06:18:52.460Z,14524.00
2024-05-09T06:19:54.142Z,23456.00
2024-05-09T06:20:55.816Z,24544.00
2024-05-09T06:21:57.182Z,21632.00
2024-05-09T06:22:58.583Z,17984.00
2024-05-09T06:24:00.406Z,28128.00
2024-05-09T06:25:02.128Z,29792.00
2024-05-09T06:26:03.575Z,31680.00
2024-05-09T06:27:04.903Z,33216.00
2024-05-09T06:28:06.326Z,22048.00
2024-05-09T06:30:08.139Z,23424.00
2024-05-09T06:31:09.011Z,24032.00
2024-05-09T06:32:10.449Z,31936.00
2024-05-09T06:33:13.807Z,31680.00
2024-05-09T06:34:13.811Z,29152.00
2024-05-09T06:35:15.327Z,32064.00
2024-05-09T06:36:16.719Z,14956.00
2024-05-09T06:37:18.077Z,14328.00
2024-05-09T06:38:19.538Z,18464.00
2024-05-09T06:39:20.885Z,26624.00
2024-05-09T06:40:25.889Z,31712.00
2024-05-09T06:41:24.234Z,32032.00
2024-05-09T06:42:25.576Z,31776.00
2024-05-09T06:43:26.957Z,32736.00
2024-05-09T06:44:28.515Z,32768.00
2024-05-09T06:45:29.939Z,32160.00
2024-05-09T06:46:31.330Z,31104.00
2024-05-09T06:47:32.909Z,31680.00
2024-05-09T06:48:34.542Z,32512.00
2024-05-09T06:49:35.985Z,33888.00
2024-05-09T06:50:39.080Z,35648.00
2024-05-09T06:51:39.104Z,35968.00
2024-05-09T06:52:40.488Z,36896.00
2024-05-09T06:53:41.871Z,36960.00
2024-05-09T06:54:43.208Z,35488.00
2024-05-09T06:55:44.841Z,34176.00
2024-05-09T06:56:46.292Z,30368.00
2024-05-09T06:57:47.678Z,32160.00
2024-05-09T06:58:49.096Z,31392.00
2024-05-09T06:59:50.463Z,30368.00
2024-05-09T07:00:51.956Z,28736.00
2024-05-09T07:01:53.446Z,27328.00
2024-05-09T07:02:54.924Z,28032.00
2024-05-09T07:03:56.521Z,32256.00
2024-05-09T07:04:58.071Z,35488.00
2024-05-09T07:05:59.505Z,37760.00
2024-05-09T07:07:00.920Z,39552.00
2024-05-09T07:08:02.329Z,40096.00
2024-05-09T07:09:03.706Z,39648.00
2024-05-09T07:10:07.766Z,40608.00
2024-05-09T07:11:06.990Z,41856.00
2024-05-09T07:12:08.836Z,42048.00
2024-05-09T07:13:10.410Z,41664.00
2024-05-09T07:14:12.261Z,40800.00
2024-05-09T07:15:15.845Z,40096.00
2024-05-09T07:16:21.550Z,39744.00
2024-05-09T07:18:30.506Z,42368.00
2024-05-09T07:19:33.141Z,44224.00
2024-05-09T07:20:35.303Z,44800.00
2024-05-09T07:21:36.713Z,49280.00
2024-05-09T07:22:38.121Z,52544.00
2024-05-09T07:23:39.595Z,51680.00
2024-05-09T07:24:41.050Z,51296.00
2024-05-09T07:25:42.454Z,50368.00
2024-05-09T07:26:43.821Z,47776.00
2024-05-09T07:27:45.312Z,47200.00
2024-05-09T07:28:46.712Z,48864.00
2024-05-09T07:29:48.145Z,48544.00
2024-05-09T07:30:49.541Z,47360.00
2024-05-09T07:31:50.939Z,47040.00
2024-05-09T07:32:52.409Z,47968.00
2024-05-09T07:33:54.040Z,47104.00
2024-05-09T07:34:55.561Z,47328.00
2024-05-09T07:35:56.955Z,47744.00
2024-05-09T07:36:58.290Z,46400.00
2024-05-09T07:37:59.734Z,43200.00
2024-05-09T07:39:01.132Z,41792.00
2024-05-09T07:40:04.165Z,41824.00
2024-05-09T07:41:03.793Z,44512.00
2024-05-09T07:42:05.118Z,48832.00
2024-05-09T07:43:06.550Z,49120.00
2024-05-09T07:44:08.029Z,49728.00
2024-05-09T07:45:21.406Z,49632.00
2024-05-09T07:47:13.954Z,49952.00
2024-05-09T07:50:34.104Z,49376.00
2024-05-09T07:53:32.433Z,47968.00
2024-05-09T07:53:49.387Z,48992.00
2024-05-09T07:54:00.665Z,50240.00
2024-05-09T07:54:59.587Z,52000.00
2024-05-09T07:56:01.211Z,53376.00
2024-05-09T07:57:02.798Z,52608.00
2024-05-09T07:58:04.268Z,56064.00
2024-05-09T07:59:05.639Z,54080.00
2024-05-09T08:00:08.308Z,53760.00
2024-05-09T08:01:08.697Z,54176.00
2024-05-09T08:02:10.369Z,54656.00
2024-05-09T08:03:11.885Z,55872.00
2024-05-09T08:04:13.315Z,56032.00
2024-05-09T08:05:14.834Z,56768.00
2024-05-09T08:06:16.303Z,55360.00
2024-05-09T08:07:17.744Z,55264.00
2024-05-09T08:08:19.159Z,55776.00
2024-05-09T08:09:21.425Z,56096.00
2024-05-09T08:10:24.910Z,61792.00
2024-05-09T08:11:24.113Z,58720.00
2024-05-09T08:12:25.556Z,58368.00
2024-05-09T08:13:26.946Z,59616.00
2024-05-09T08:14:28.351Z,59232.00
2024-05-09T08:15:29.822Z,59456.00
2024-05-09T08:16:31.214Z,59712.00
2024-05-09T08:17:32.825Z,58496.00
2024-05-09T08:18:34.780Z,58528.00
2024-05-09T08:19:36.387Z,58336.00
2024-05-09T08:20:37.752Z,59072.00
2024-05-09T08:21:39.131Z,57760.00
2024-05-09T08:22:40.487Z,57344.00
2024-05-09T08:23:41.882Z,59712.00
2024-05-09T08:24:43.276Z,58720.00
2024-05-09T08:25:44.631Z,59040.00
2024-05-09T08:26:46.012Z,59648.00
2024-05-09T08:27:47.482Z,63680.00
2024-05-09T08:28:48.852Z,67328.00
2024-05-09T08:29:50.217Z,64928.00
2024-05-09T08:30:51.755Z,64768.00
2024-05-09T08:31:53.191Z,64192.00
2024-05-09T08:32:54.699Z,57664.00
2024-05-09T08:33:56.175Z,57344.00
2024-05-09T08:34:57.868Z,58080.00
2024-05-09T08:35:59.220Z,57696.00
2024-05-09T08:37:03.842Z,58304.00
2024-05-09T08:38:02.616Z,61088.00
2024-05-09T08:39:04.210Z,62912.00
2024-05-09T08:40:08.468Z,63712.00
2024-05-09T08:41:07.704Z,64128.00
2024-05-09T08:42:09.095Z,64032.00
2024-05-09T08:43:12.145Z,65536.00
2024-05-09T08:44:12.231Z,64576.00
2024-05-09T08:45:13.628Z,63456.00
2024-05-09T08:46:15.053Z,64224.00
2024-05-09T08:47:16.421Z,60768.00
2024-05-09T08:48:17.883Z,59584.00
2024-05-09T08:49:19.317Z,61056.00
2024-05-09T08:50:29.226Z,58848.00
2024-05-09T08:51:22.612Z,64992.00
2024-05-09T08:52:24.016Z,67424.00
2024-05-09T08:53:25.372Z,68224.00
2024-05-09T08:54:26.881Z,67808.00
2024-05-09T08:55:28.220Z,64736.00
2024-05-09T08:56:29.638Z,65472.00
2024-05-09T08:57:31.065Z,64544.00
2024-05-09T08:58:32.448Z,67168.00
2024-05-09T08:59:33.869Z,68448.00
2024-05-09T09:00:37.327Z,36032.00
2024-05-09T09:01:38.028Z,9228.00
2024-05-09T09:02:38.519Z,8480.00
2024-05-09T09:03:40.312Z,8396.00
2024-05-09T09:04:41.892Z,9292.00
2024-05-09T09:05:43.298Z,10620.00
2024-05-09T09:06:44.905Z,11628.00
2024-05-09T09:07:46.434Z,12392.00
2024-05-09T09:08:47.800Z,14092.00
2024-05-09T09:09:49.258Z,71488.00
2024-05-09T09:10:50.619Z,12652.00
2024-05-09T09:11:52.116Z,10284.00
2024-05-09T09:12:53.637Z,9760.00
2024-05-09T09:13:55.008Z,9544.00
2024-05-09T09:14:56.430Z,9004.00
2024-05-09T09:15:58.207Z,8824.00
2024-05-09T09:16:59.826Z,8924.00
2024-05-09T09:18:01.564Z,9364.00
2024-05-09T09:20:05.326Z,69344.00
2024-05-09T09:21:06.034Z,74624.00
2024-05-09T09:22:07.508Z,77536.00
2024-05-09T09:23:08.857Z,75296.00
2024-05-09T09:24:10.256Z,72192.00
2024-05-09T09:25:11.813Z,70240.00
2024-05-09T09:26:13.229Z,69920.00
2024-05-09T09:27:14.624Z,71552.00
2024-05-09T09:28:16.139Z,68064.00
2024-05-09T09:29:17.497Z,68992.00
2024-05-09T09:30:31.496Z,70112.00
2024-05-09T09:31:20.876Z,72160.00
2024-05-09T09:32:22.280Z,76224.00
2024-05-09T09:33:23.690Z,77216.00
2024-05-09T09:34:25.226Z,86560.00
2024-05-09T09:35:26.622Z,84576.00
2024-05-09T09:36:28.062Z,85312.00
2024-05-09T09:37:29.401Z,84352.00
2024-05-09T09:38:30.868Z,84640.00
2024-05-09T09:39:32.282Z,71232.00
2024-05-09T09:40:36.117Z,76832.00
2024-05-09T09:41:35.541Z,71616.00
2024-05-09T09:42:36.972Z,67328.00
2024-05-09T09:43:38.474Z,64064.00
2024-05-09T09:44:42.192Z,65632.00
2024-05-09T09:45:41.605Z,62880.00
2024-05-09T09:46:42.953Z,61088.00
2024-05-09T09:47:44.726Z,60288.00
2024-05-09T09:48:46.333Z,61408.00
2024-05-09T09:49:47.853Z,66816.00
2024-05-09T09:50:49.296Z,64832.00
2024-05-09T09:51:50.730Z,64640.00
2024-05-09T09:52:52.148Z,69792.00
2024-05-09T09:53:53.610Z,79040.00
2024-05-09T09:54:55.177Z,85504.00
2024-05-09T09:55:56.593Z,82464.00
2024-05-09T09:56:58.016Z,87072.00
2024-05-09T09:57:59.393Z,91136.00
2024-05-09T09:59:00.761Z,87488.00
2024-05-09T10:00:03.108Z,85696.00
2024-05-09T10:01:03.458Z,79072.00
2024-05-09T10:02:05.003Z,73824.00
2024-05-09T10:03:06.387Z,76608.00
2024-05-09T10:04:07.832Z,77504.00
2024-05-09T10:05:09.300Z,23712.00
2024-05-09T10:06:10.822Z,24384.00
2024-05-09T10:07:12.330Z,73728.00
2024-05-09T10:08:13.777Z,90656.00
2024-05-09T10:09:15.118Z,91712.00
2024-05-09T10:10:22.775Z,92192.00
2024-05-09T10:11:18.505Z,81280.00
2024-05-09T10:12:19.930Z,90144.00
2024-05-09T10:13:21.430Z,23488.00
2024-05-09T10:14:22.795Z,30112.00
2024-05-09T10:15:24.159Z,29568.00
2024-05-09T10:16:25.822Z,50656.00
2024-05-09T10:17:27.342Z,21120.00
2024-05-09T10:18:31.175Z,19296.00
2024-05-09T10:19:30.708Z,19232.00
2024-05-09T10:20:32.906Z,19168.00
2024-05-09T10:21:33.406Z,18400.00
2024-05-09T10:22:34.831Z,18592.00
2024-05-09T10:23:36.246Z,20192.00
2024-05-09T10:24:37.635Z,21472.00
2024-05-09T10:25:39.104Z,21856.00
2024-05-09T10:26:40.520Z,65280.00
2024-05-09T10:27:42.012Z,35136.00
2024-05-09T10:28:43.362Z,74272.00
2024-05-09T10:29:44.709Z,19232.00
2024-05-09T10:30:47.221Z,16388.00
2024-05-09T10:31:47.305Z,16352.00
2024-05-09T10:32:48.732Z,19040.00
2024-05-09T10:33:51.172Z,31232.00
2024-05-09T10:34:51.412Z,44448.00
2024-05-09T10:35:52.804Z,54336.00
2024-05-09T10:36:54.205Z,71712.00
2024-05-09T10:37:55.564Z,77824.00
2024-05-09T10:38:56.948Z,89248.00
2024-05-09T10:39:58.429Z,87584.00
2024-05-09T10:40:59.787Z,90656.00
2024-05-09T10:42:01.237Z,92992.00
2024-05-09T10:43:05.766Z,100736.00
2024-05-09T10:44:04.491Z,100448.00
2024-05-09T10:45:05.867Z,97760.00
2024-05-09T10:46:07.433Z,86016.00
2024-05-09T10:47:08.957Z,87040.00
2024-05-09T10:48:10.404Z,23968.00
2024-05-09T10:49:11.868Z,25120.00
2024-05-09T10:50:22.216Z,20096.00
2024-05-09T10:51:15.147Z,18592.00
2024-05-09T10:52:16.603Z,17696.00
2024-05-09T10:53:17.969Z,16860.00
2024-05-09T10:54:19.329Z,16832.00
2024-05-09T10:55:20.970Z,17952.00
2024-05-09T10:56:22.468Z,17920.00
2024-05-09T10:57:23.918Z,18144.00
2024-05-09T10:58:25.311Z,19008.00
2024-05-09T10:59:26.671Z,95744.00
2024-05-09T11:00:33.672Z,65216.00
2024-05-09T11:01:29.982Z,18944.00
2024-05-09T11:02:31.602Z,15832.00
2024-05-09T11:03:33.155Z,16360.00
2024-05-09T11:04:34.583Z,19744.00
2024-05-09T11:05:36.210Z,19872.00
2024-05-09T11:06:37.747Z,43040.00
2024-05-09T11:07:39.236Z,93888.00
2024-05-09T11:08:40.602Z,101696.00
2024-05-09T11:09:42.028Z,96480.00
2024-05-09T11:10:43.440Z,92480.00
2024-05-09T11:11:44.845Z,91744.00
2024-05-09T11:12:46.208Z,97920.00
2024-05-09T11:13:47.562Z,95136.00
2024-05-09T11:14:48.936Z,34688.00
2024-05-09T11:15:50.470Z,19936.00
2024-05-09T11:16:51.843Z,21824.00
2024-05-09T11:17:53.369Z,17332.00
2024-05-09T11:18:55.240Z,14636.00
2024-05-09T11:19:56.825Z,14260.00
2024-05-09T11:20:58.222Z,14448.00
2024-05-09T11:21:59.596Z,15228.00
2024-05-09T11:23:00.959Z,19360.00
2024-05-09T11:24:02.325Z,65824.00
2024-05-09T11:25:03.764Z,98368.00
2024-05-09T11:26:05.183Z,95232.00
2024-05-09T11:27:06.568Z,91296.00
2024-05-09T11:28:08.024Z,96064.00
2024-05-09T11:29:09.417Z,96672.00
2024-05-09T11:30:14.326Z,84640.00
2024-05-09T11:31:12.749Z,93984.00
2024-05-09T11:32:14.182Z,93984.00
2024-05-09T11:33:15.551Z,82336.00
2024-05-09T11:34:17.021Z,91520.00
2024-05-09T11:35:18.413Z,90176.00
2024-05-09T11:36:19.807Z,91360.00
2024-05-09T11:37:34.003Z,87712.00
2024-05-09T11:39:42.343Z,88544.00
2024-05-09T11:40:39.966Z,86368.00
2024-05-09T11:41:41.367Z,96416.00
2024-05-09T11:42:42.746Z,19968.00
2024-05-09T11:43:44.087Z,13796.00
2024-05-09T11:44:45.476Z,13548.00
2024-05-09T11:45:46.930Z,14556.00
2024-05-09T11:46:48.281Z,15616.00
2024-05-09T11:47:49.812Z,15456.00
2024-05-09T11:48:51.412Z,16872.00
2024-05-09T11:49:52.907Z,26880.00
2024-05-09T11:50:54.231Z,31584.00
2024-05-09T11:51:55.654Z,81472.00
2024-05-09T11:52:57.019Z,92800.00
2024-05-09T11:53:58.356Z,92000.00
2024-05-09T11:54:59.772Z,94656.00
2024-05-09T11:56:01.141Z,69120.00
2024-05-09T11:57:02.463Z,91008.00
2024-05-09T11:58:03.998Z,94432.00
2024-05-09T11:59:05.365Z,91392.00
2024-05-09T12:00:09.441Z,82208.00
2024-05-09T12:01:14.750Z,87872.00
2024-05-09T12:02:10.872Z,37536.00
2024-05-09T12:03:12.388Z,33440.00
2024-05-09T12:04:13.868Z,20736.00
2024-05-09T12:05:15.384Z,89824.00
2024-05-09T12:06:16.942Z,85920.00
2024-05-09T12:07:18.386Z,89536.00
2024-05-09T12:08:19.733Z,92096.00
2024-05-09T12:09:21.157Z,88896.00
2024-05-09T12:10:29.579Z,86272.00
2024-05-09T12:11:24.441Z,87776.00
2024-05-09T12:12:25.857Z,91584.00
2024-05-09T12:13:27.229Z,77888.00
2024-05-09T12:14:28.598Z,17092.00
2024-05-09T12:15:30.043Z,17244.00
2024-05-09T12:17:32.817Z,16972.00
2024-05-09T12:18:34.328Z,19712.00
2024-05-09T12:19:35.799Z,23584.00
2024-05-09T12:20:39.590Z,16300.00
2024-05-09T12:21:38.370Z,15728.00
2024-05-09T12:22:39.699Z,37760.00
2024-05-09T12:23:41.087Z,18144.00
2024-05-09T12:24:42.510Z,16120.00
2024-05-09T12:25:43.920Z,15768.00
2024-05-09T12:26:45.317Z,59872.00
2024-05-09T12:27:46.716Z,85824.00
2024-05-09T12:28:48.078Z,91776.00
2024-05-09T12:29:49.467Z,90528.00
2024-05-09T12:30:50.939Z,94080.00
2024-05-09T12:31:52.314Z,86496.00
2024-05-09T12:32:53.829Z,19168.00
2024-05-09T12:33:55.237Z,66496.00
2024-05-09T12:34:56.656Z,87488.00
2024-05-09T12:35:58.056Z,92800.00
2024-05-09T12:36:59.548Z,93984.00
2024-05-09T12:38:00.894Z,94272.00
2024-05-09T12:39:02.243Z,90496.00
2024-05-09T12:40:04.929Z,89280.00
2024-05-09T12:41:05.930Z,92992.00
2024-05-09T12:42:07.315Z,87392.00
2024-05-09T12:43:10.132Z,82784.00
2024-05-09T12:44:10.296Z,80096.00
2024-05-09T12:45:11.699Z,81536.00
2024-05-09T12:46:13.111Z,80864.00
2024-05-09T12:47:14.572Z,82400.00
2024-05-09T12:48:15.956Z,79040.00
2024-05-09T12:49:18.938Z,82624.00
2024-05-09T12:50:25.048Z,36192.00
2024-05-09T12:51:20.591Z,77376.00
2024-05-09T12:52:22.117Z,84800.00
2024-05-09T12:53:23.661Z,88480.00
2024-05-09T12:54:25.026Z,81568.00
2024-05-09T12:55:27.890Z,81728.00
2024-05-09T12:56:28.294Z,83072.00
2024-05-09T12:57:29.648Z,84640.00
2024-05-09T12:58:31.054Z,84576.00
2024-05-09T12:59:32.412Z,85376.00
2024-05-09T13:00:34.579Z,70176.00
2024-05-09T13:01:35.081Z,82944.00
2024-05-09T13:02:36.588Z,78144.00
2024-05-09T13:03:38.162Z,83200.00
2024-05-09T13:04:39.715Z,72544.00
2024-05-09T13:05:41.839Z,78720.00
2024-05-09T13:06:42.318Z,81088.00
2024-05-09T13:07:43.695Z,80448.00
2024-05-09T13:08:45.058Z,80448.00
2024-05-09T13:09:46.476Z,65728.00
2024-05-09T13:10:48.011Z,37632.00
2024-05-09T13:11:49.618Z,15068.00
2024-05-09T13:12:51.094Z,14072.00
2024-05-09T13:13:52.407Z,14144.00
2024-05-09T13:14:53.811Z,13348.00
2024-05-09T13:15:55.228Z,12264.00
2024-05-09T13:16:56.699Z,11724.00
2024-05-09T13:18:01.564Z,10952.00
2024-05-09T13:18:59.930Z,9932.00
2024-05-09T13:20:01.290Z,9404.00
2024-05-09T13:21:02.637Z,9332.00
2024-05-09T13:22:04.055Z,9384.00
2024-05-09T13:23:06.361Z,9328.00
2024-05-09T13:24:06.622Z,9432.00
2024-05-09T13:25:08.057Z,9712.00
2024-05-09T13:26:09.465Z,10132.00
2024-05-09T13:27:10.865Z,10408.00
2024-05-09T13:28:12.268Z,10400.00
2024-05-09T13:29:13.633Z,10444.00
2024-05-09T13:30:21.909Z,10144.00
2024-05-09T13:31:16.865Z,10144.00
2024-05-09T13:32:18.238Z,10196.00
2024-05-09T13:33:19.740Z,10064.00
2024-05-09T13:34:21.220Z,10232.00
2024-05-09T13:35:22.593Z,10472.00
2024-05-09T13:36:23.952Z,10548.00
2024-05-09T13:37:25.321Z,10476.00
2024-05-09T13:38:26.697Z,10696.00
2024-05-09T13:39:28.132Z,10416.00
2024-05-09T13:40:33.952Z,10272.00
2024-05-09T13:41:31.336Z,10392.00
2024-05-09T13:42:32.786Z,10076.00
2024-05-09T13:43:34.187Z,9760.00
2024-05-09T13:44:35.518Z,9800.00
2024-05-09T13:45:36.883Z,9736.00
2024-05-09T13:46:38.234Z,9384.00
2024-05-09T13:47:39.857Z,8732.00
2024-05-09T13:48:41.396Z,8072.00
2024-05-09T13:49:42.764Z,7512.00
2024-05-09T13:50:44.090Z,7548.00
2024-05-09T13:51:45.507Z,7896.00
2024-05-09T13:52:46.852Z,8836.00
2024-05-09T13:53:48.224Z,8516.00
2024-05-09T13:54:49.617Z,8576.00
2024-05-09T13:55:50.965Z,9172.00
2024-05-09T13:56:52.330Z,9436.00
2024-05-09T13:57:53.951Z,9156.00
2024-05-09T13:58:55.369Z,8828.00
2024-05-09T13:59:56.774Z,8412.00
2024-05-09T14:00:58.302Z,7736.00
2024-05-09T14:01:59.799Z,7164.00
2024-05-09T14:03:01.351Z,6348.00
2024-05-09T14:04:02.894Z,5768.00
2024-05-09T14:05:04.457Z,5608.00
2024-05-09T14:06:07.080Z,5612.00
2024-05-09T14:07:07.297Z,5640.00
2024-05-09T14:08:08.744Z,5560.00
2024-05-09T14:09:10.123Z,5520.00
2024-05-09T14:10:19.484Z,5952.00
2024-05-09T14:11:13.428Z,6124.00
2024-05-09T14:12:14.842Z,6112.00
2024-05-09T14:13:16.494Z,6132.00
2024-05-09T14:14:17.988Z,5848.00
2024-05-09T14:15:19.374Z,5796.00
2024-05-09T14:16:20.801Z,5832.00
2024-05-09T14:17:22.296Z,6004.00
2024-05-09T14:18:23.698Z,6128.00
2024-05-09T14:19:25.332Z,6164.00
2024-05-09T14:20:31.233Z,6176.00
2024-05-09T14:21:28.580Z,5848.00
2024-05-09T14:22:29.913Z,5536.00
2024-05-09T14:23:31.327Z,5556.00
2024-05-09T14:24:32.762Z,5696.00
2024-05-09T14:25:36.810Z,5440.00
2024-05-09T14:26:36.012Z,4936.00
2024-05-09T14:27:37.374Z,4612.00
2024-05-09T14:28:38.765Z,4360.00
2024-05-09T14:29:40.129Z,4052.00
2024-05-09T14:30:41.845Z,3828.00
2024-05-09T14:31:43.421Z,3736.00
2024-05-09T14:32:44.876Z,3692.00
2024-05-09T14:33:46.424Z,3656.00
2024-05-09T14:34:48.023Z,3664.00
2024-05-09T14:35:49.379Z,3836.00
2024-05-09T14:36:50.829Z,4004.00
2024-05-09T14:37:52.140Z,3996.00
2024-05-09T14:38:53.568Z,3856.00
2024-05-09T14:39:54.947Z,3736.00
2024-05-09T14:40:56.324Z,3716.00
2024-05-09T14:41:57.675Z,3608.00
2024-05-09T14:43:01.110Z,3740.00
2024-05-09T14:44:00.468Z,3760.00
2024-05-09T14:45:01.825Z,3732.00
2024-05-09T14:46:03.226Z,3652.00
2024-05-09T14:47:04.613Z,3552.00
2024-05-09T14:48:06.146Z,3452.00
2024-05-09T14:49:09.872Z,3356.00
2024-05-09T14:50:11.237Z,3284.00
2024-05-09T14:51:10.513Z,3232.00
2024-05-09T14:52:12.030Z,3196.00
2024-05-09T14:53:14.090Z,3204.00
2024-05-09T14:54:15.554Z,3216.00
2024-05-09T14:55:16.983Z,3264.00
2024-05-09T14:56:18.335Z,3320.00
2024-05-09T14:57:19.703Z,3248.00
2024-05-09T14:58:21.132Z,3108.00
2024-05-09T14:59:22.513Z,3016.00
2024-05-09T15:00:28.931Z,2992.00
2024-05-09T15:01:25.817Z,3020.00
2024-05-09T15:02:27.293Z,3028.00
2024-05-09T15:03:28.665Z,3008.00
2024-05-09T15:04:30.107Z,2972.00
2024-05-09T15:05:31.607Z,2964.00
2024-05-09T15:06:33.059Z,2972.00
2024-05-09T15:07:34.456Z,2976.00
2024-05-09T15:08:35.801Z,2972.00
2024-05-09T15:09:37.220Z,2948.00
2024-05-09T15:10:38.591Z,2928.00
2024-05-09T15:11:40.015Z,2900.00
2024-05-09T15:12:41.496Z,2872.00
2024-05-09T15:13:42.843Z,2840.00
2024-05-09T15:14:44.241Z,2824.00
2024-05-09T15:15:45.732Z,2816.00
2024-05-09T15:16:47.111Z,2816.00
2024-05-09T15:17:48.572Z,2820.00
2024-05-09T15:18:50.109Z,2824.00
2024-05-09T15:19:51.796Z,2832.00
2024-05-09T15:20:53.250Z,2876.00
2024-05-09T15:21:54.734Z,2896.00
2024-05-09T15:22:56.085Z,2932.00
2024-05-09T15:23:57.446Z,3188.00
2024-05-09T15:24:58.947Z,3524.00